createdAt,value
2017-11-19T00:00:03.333Z,2.40
2017-11-19T00:02:36.995Z,2.40
2017-11-19T00:05:10.552Z,2.30
2017-11-19T00:07:44.180Z,2.50
2017-11-19T00:10:17.766Z,2.50
2017-11-19T00:12:51.347Z,2.60
2017-11-19T00:15:25.105Z,2.50
2017-11-19T00:17:58.765Z,2.30
2017-11-19T00:20:32.519Z,2.00
2017-11-19T00:23:06.084Z,2.10
2017-11-19T00:25:39.686Z,2.10
2017-11-19T00:28:13.493Z,2.10
2017-11-19T00:30:47.810Z,2.20
2017-11-19T00:33:22.218Z,2.30
2017-11-19T00:35:55.835Z,2.30
2017-11-19T00:38:30.133Z,2.20
2017-11-19T00:41:04.429Z,2.20
2017-11-19T00:43:38.941Z,2.10
2017-11-19T00:46:13.417Z,2.20
2017-11-19T00:48:46.984Z,2.20
2017-11-19T00:51:20.632Z,2.30
2017-11-19T00:53:54.209Z,2.20
2017-11-19T00:56:27.789Z,2.30
2017-11-19T00:59:01.398Z,2.40
2017-11-19T01:01:35.005Z,2.60
2017-11-19T01:04:08.608Z,2.70
2017-11-19T01:06:42.208Z,2.70
2017-11-19T01:09:15.785Z,2.60
2017-11-19T01:11:49.414Z,2.50
2017-11-19T01:14:23.011Z,2.40
2017-11-19T01:16:56.582Z,2.60
2017-11-19T01:19:30.882Z,2.50
2017-11-19T01:22:04.437Z,2.50
2017-11-19T01:24:38.146Z,2.00
2017-11-19T01:27:12.563Z,2.20
2017-11-19T01:29:46.179Z,2.20
2017-11-19T01:32:20.575Z,2.60
2017-11-19T01:34:55.072Z,2.60
2017-11-19T01:37:28.655Z,2.60
2017-11-19T01:40:02.312Z,2.70
2017-11-19T01:42:35.906Z,2.70
2017-11-19T01:45:09.604Z,2.80
2017-11-19T01:47:44.014Z,2.80
2017-11-19T01:50:17.612Z,2.80
2017-11-19T01:52:51.210Z,2.40
2017-11-19T01:55:25.481Z,2.50
2017-11-19T01:57:59.130Z,2.50
2017-11-19T02:00:33.528Z,2.50
2017-11-19T02:03:08.058Z,2.40
2017-11-19T02:05:41.843Z,2.40
2017-11-19T02:08:16.156Z,2.30
2017-11-19T02:10:49.840Z,2.30
2017-11-19T02:13:23.557Z,2.30
2017-11-19T02:15:57.118Z,2.30
2017-11-19T02:18:30.681Z,2.30
2017-11-19T02:21:04.245Z,2.30
2017-11-19T02:23:37.951Z,2.30
2017-11-19T02:26:11.577Z,2.40
2017-11-19T02:28:45.249Z,2.40
2017-11-19T02:31:18.829Z,2.40
2017-11-19T02:33:52.435Z,2.40
2017-11-19T02:36:26.089Z,2.30
2017-11-19T02:38:59.637Z,2.10
2017-11-19T02:41:33.248Z,2.10
2017-11-19T02:44:06.986Z,2.10
2017-11-19T02:46:40.784Z,2.20
2017-11-19T02:49:14.331Z,2.30
2017-11-19T02:51:48.024Z,2.30
2017-11-19T02:54:22.336Z,1.30
2017-11-19T02:56:56.100Z,1.30
2017-11-19T02:59:29.701Z,1.20
2017-11-19T03:02:04.158Z,1.60
2017-11-19T03:04:37.819Z,1.50
2017-11-19T03:07:11.508Z,1.70
2017-11-19T03:09:45.054Z,1.60
2017-11-19T03:12:18.661Z,1.60
2017-11-19T03:14:52.372Z,1.40
2017-11-19T03:17:25.998Z,1.60
2017-11-19T03:19:59.562Z,1.70
2017-11-19T03:22:33.282Z,1.80
2017-11-19T03:25:06.957Z,1.80
2017-11-19T03:27:40.505Z,1.90
2017-11-19T03:30:14.108Z,2.00
2017-11-19T03:32:47.685Z,2.10
2017-11-19T03:35:21.269Z,2.10
2017-11-19T03:37:55.130Z,1.90
2017-11-19T03:40:28.659Z,1.50
2017-11-19T03:43:02.996Z,1.70
2017-11-19T03:45:36.679Z,1.70
2017-11-19T03:48:10.315Z,1.80
2017-11-19T03:50:44.715Z,1.80
2017-11-19T03:53:19.251Z,1.60
2017-11-19T03:55:53.551Z,1.90
2017-11-19T03:58:27.230Z,1.90
2017-11-19T04:01:00.830Z,1.90
2017-11-19T04:03:34.403Z,1.90
2017-11-19T04:06:08.050Z,2.00
2017-11-19T04:08:41.793Z,2.00
2017-11-19T04:11:15.343Z,2.00
2017-11-19T04:13:49.086Z,2.10
2017-11-19T04:16:22.653Z,2.00
2017-11-19T04:18:56.288Z,1.80
2017-11-19T04:21:29.847Z,1.90
2017-11-19T04:24:04.307Z,2.00
2017-11-19T04:26:38.616Z,2.10
2017-11-19T04:29:12.229Z,2.10
2017-11-19T04:31:45.762Z,2.20
2017-11-19T04:34:19.353Z,2.10
2017-11-19T04:36:53.006Z,2.10
2017-11-19T04:39:26.614Z,1.40
2017-11-19T04:42:00.134Z,1.30
2017-11-19T04:44:33.710Z,1.50
2017-11-19T04:47:07.341Z,1.70
2017-11-19T04:49:41.650Z,1.40
2017-11-19T04:52:15.193Z,1.40
2017-11-19T04:54:48.772Z,1.40
2017-11-19T04:57:22.419Z,1.40
2017-11-19T04:59:55.926Z,1.60
2017-11-19T05:02:29.524Z,1.40
2017-11-19T05:05:03.139Z,1.50
2017-11-19T05:07:36.717Z,1.60
2017-11-19T05:10:11.043Z,1.70
2017-11-19T05:12:44.641Z,1.70
2017-11-19T05:15:18.288Z,1.70
2017-11-19T05:17:52.563Z,1.60
2017-11-19T05:20:26.173Z,1.60
2017-11-19T05:22:59.922Z,1.50
2017-11-19T05:25:33.584Z,1.20
2017-11-19T05:28:07.167Z,1.20
2017-11-19T05:30:40.722Z,1.20
2017-11-19T05:33:14.286Z,1.20
2017-11-19T05:35:47.976Z,1.20
2017-11-19T05:38:22.394Z,1.30
2017-11-19T05:40:55.937Z,1.30
2017-11-19T05:43:29.590Z,1.30
2017-11-19T05:46:03.193Z,1.20
2017-11-19T05:48:36.755Z,1.40
2017-11-19T05:51:10.536Z,1.60
2017-11-19T05:53:44.201Z,1.60
2017-11-19T05:56:18.525Z,1.70
2017-11-19T05:58:52.178Z,1.70
2017-11-19T06:01:25.714Z,1.90
2017-11-19T06:04:00.030Z,2.00
2017-11-19T06:06:33.711Z,2.00
2017-11-19T06:09:07.326Z,2.10
2017-11-19T06:11:40.893Z,2.20
2017-11-19T06:14:14.662Z,2.30
2017-11-19T06:16:48.229Z,2.30
2017-11-19T06:19:21.756Z,2.10
2017-11-19T06:21:55.477Z,2.20
2017-11-19T06:24:29.026Z,2.30
2017-11-19T06:27:03.363Z,2.40
2017-11-19T06:29:36.961Z,2.40
2017-11-19T06:32:10.574Z,2.20
2017-11-19T06:34:44.137Z,2.30
2017-11-19T06:37:17.688Z,2.40
2017-11-19T06:39:51.274Z,2.40
2017-11-19T06:42:24.874Z,2.30
2017-11-19T06:44:58.365Z,2.30
2017-11-19T06:47:31.961Z,2.30
2017-11-19T06:50:05.619Z,2.40
2017-11-19T06:52:39.314Z,2.40
2017-11-19T06:55:12.919Z,2.40
2017-11-19T06:57:46.578Z,2.40
2017-11-19T07:00:20.390Z,2.40
2017-11-19T07:02:53.958Z,2.30
2017-11-19T07:05:27.604Z,2.30
2017-11-19T07:08:01.340Z,2.30
2017-11-19T07:10:34.895Z,2.10
2017-11-19T07:13:08.454Z,2.10
2017-11-19T07:15:42.058Z,2.10
2017-11-19T07:18:15.578Z,1.90
2017-11-19T07:20:49.086Z,2.00
2017-11-19T07:23:23.415Z,2.00
2017-11-19T07:25:57.130Z,2.00
2017-11-19T07:28:30.721Z,1.90
2017-11-19T07:31:05.104Z,2.00
2017-11-19T07:33:38.716Z,2.00
2017-11-19T07:36:12.265Z,2.10
2017-11-19T07:38:45.983Z,2.20
2017-11-19T07:41:19.600Z,2.10
2017-11-19T07:43:53.152Z,2.20
2017-11-19T07:46:26.696Z,2.20
2017-11-19T07:49:00.309Z,2.20
2017-11-19T07:51:33.904Z,2.30
2017-11-19T07:54:08.426Z,2.30
2017-11-19T07:56:42.748Z,2.30
2017-11-19T07:59:16.369Z,2.30
2017-11-19T08:01:49.947Z,2.40
2017-11-19T08:04:23.659Z,2.40
2017-11-19T08:06:57.287Z,2.40
2017-11-19T08:09:30.784Z,2.40
2017-11-19T08:12:04.324Z,2.40
2017-11-19T08:14:37.921Z,2.40
2017-11-19T08:17:11.688Z,2.50
2017-11-19T08:19:45.266Z,2.50
2017-11-19T08:22:18.817Z,2.50
2017-11-19T08:24:52.381Z,2.50
2017-11-19T08:27:25.953Z,2.50
2017-11-19T08:29:59.500Z,2.50
2017-11-19T08:32:33.093Z,2.50
2017-11-19T08:35:06.666Z,2.60
2017-11-19T08:37:40.333Z,2.50
2017-11-19T08:40:13.895Z,2.50
2017-11-19T08:42:47.484Z,2.60
2017-11-19T08:45:21.070Z,2.70
2017-11-19T08:47:54.660Z,2.60
2017-11-19T08:50:28.382Z,2.70
2017-11-19T08:53:01.874Z,2.70
2017-11-19T08:55:35.377Z,2.80
2017-11-19T08:58:08.958Z,2.70
2017-11-19T09:00:42.524Z,2.80
2017-11-19T09:03:16.883Z,2.90
2017-11-19T09:05:51.302Z,2.80
2017-11-19T09:08:24.889Z,2.80
2017-11-19T09:10:58.517Z,2.80
2017-11-19T09:13:32.095Z,2.90
2017-11-19T09:16:06.432Z,2.80
2017-11-19T09:18:40.030Z,2.80
2017-11-19T09:21:13.584Z,2.90
2017-11-19T09:23:47.193Z,2.90
2017-11-19T09:26:20.800Z,2.90
2017-11-19T09:28:55.122Z,3.00
2017-11-19T09:31:28.883Z,3.00
2017-11-19T09:34:02.431Z,3.00
2017-11-19T09:36:36.031Z,3.10
2017-11-19T09:39:09.606Z,3.00
2017-11-19T09:41:43.286Z,3.00
2017-11-19T09:44:16.921Z,3.00
2017-11-19T09:46:50.594Z,3.00
2017-11-19T09:49:24.105Z,3.00
2017-11-19T09:51:57.633Z,3.00
2017-11-19T09:54:31.246Z,3.10
2017-11-19T09:57:05.561Z,2.80
2017-11-19T09:59:40.076Z,2.70
2017-11-19T10:02:14.403Z,2.70
2017-11-19T10:04:47.881Z,2.70
2017-11-19T10:07:21.395Z,2.80
2017-11-19T10:09:55.712Z,2.90
2017-11-19T10:12:29.434Z,2.90
2017-11-19T10:15:03.019Z,2.90
2017-11-19T10:17:36.631Z,2.90
2017-11-19T10:20:10.143Z,2.90
2017-11-19T10:22:43.851Z,2.70
2017-11-19T10:25:17.402Z,2.60
2017-11-19T10:27:51.027Z,2.50
2017-11-19T10:30:24.794Z,2.50
2017-11-19T10:32:58.358Z,2.50
2017-11-19T10:35:31.911Z,2.60
2017-11-19T10:38:05.466Z,2.70
2017-11-19T10:40:39.007Z,2.70
2017-11-19T10:43:12.651Z,2.60
2017-11-19T10:45:46.353Z,2.70
2017-11-19T10:48:19.855Z,2.70
2017-11-19T10:50:53.535Z,2.80
2017-11-19T10:53:28.359Z,2.90
2017-11-19T10:56:01.958Z,2.90
2017-11-19T10:58:35.656Z,2.90
2017-11-19T11:01:09.229Z,3.00
2017-11-19T11:03:42.775Z,3.00
2017-11-19T11:06:16.342Z,2.90
2017-11-19T11:08:50.062Z,2.70
2017-11-19T11:11:23.786Z,2.30
2017-11-19T11:13:57.416Z,2.10
2017-11-19T11:16:31.174Z,1.70
2017-11-19T11:19:04.938Z,1.60
2017-11-19T11:21:38.459Z,1.50
2017-11-19T11:24:12.235Z,1.40
2017-11-19T11:26:45.810Z,1.30
2017-11-19T11:29:19.422Z,1.50
2017-11-19T11:31:52.965Z,1.40
2017-11-19T11:34:32.495Z,1.50
2017-11-19T11:37:06.834Z,1.50
2017-11-19T11:39:41.451Z,1.50
2017-11-19T11:42:16.243Z,1.50
2017-11-19T11:44:51.134Z,1.50
2017-11-19T11:47:25.934Z,1.60
2017-11-19T11:50:00.039Z,1.70
2017-11-19T11:52:34.569Z,1.90
2017-11-19T11:55:08.502Z,2.00
2017-11-19T11:57:42.639Z,2.10
2017-11-19T12:00:16.870Z,2.20
2017-11-19T12:02:50.730Z,2.10
2017-11-19T12:05:24.567Z,2.20
2017-11-19T12:07:58.898Z,2.20
2017-11-19T12:10:33.069Z,2.30
2017-11-19T12:13:07.649Z,2.60
2017-11-19T12:15:41.500Z,2.60
2017-11-19T12:18:15.357Z,2.70
2017-11-19T12:20:49.471Z,2.50
2017-11-19T12:23:23.848Z,2.40
2017-11-19T12:25:57.725Z,2.30
2017-11-19T12:28:31.753Z,2.40
2017-11-19T12:31:05.918Z,2.50
2017-11-19T12:33:39.983Z,2.50
2017-11-19T12:36:14.584Z,2.80
2017-11-19T12:38:49.289Z,2.90
2017-11-19T12:41:24.104Z,2.90
2017-11-19T12:43:58.842Z,2.80
2017-11-19T12:46:32.765Z,2.80
2017-11-19T12:49:06.865Z,2.90
2017-11-19T12:51:40.560Z,2.90
2017-11-19T12:54:14.457Z,2.90
2017-11-19T12:56:49.350Z,3.00
2017-11-19T12:59:23.103Z,3.10
2017-11-19T13:01:56.841Z,3.10
2017-11-19T13:04:30.776Z,3.10
2017-11-19T13:07:04.722Z,3.10
2017-11-19T13:09:38.816Z,3.10
2017-11-19T13:12:12.847Z,3.10
2017-11-19T13:14:51.172Z,3.30
2017-11-19T13:17:25.161Z,3.30
2017-11-19T13:19:58.882Z,3.50
2017-11-19T13:22:33.555Z,3.30
2017-11-19T13:25:07.712Z,3.40
2017-11-19T13:27:41.629Z,3.30
2017-11-19T13:30:15.761Z,3.40
2017-11-19T13:32:50.798Z,3.50
2017-11-19T13:35:24.776Z,3.70
2017-11-19T13:37:59.433Z,3.60
2017-11-19T13:40:34.385Z,3.60
2017-11-19T13:43:09.149Z,3.40
2017-11-19T13:45:43.470Z,3.40
2017-11-19T13:48:17.735Z,3.50
2017-11-19T13:50:51.619Z,3.40
2017-11-19T13:53:25.605Z,3.50
2017-11-19T13:55:59.478Z,3.50
2017-11-19T13:58:33.716Z,3.50
2017-11-19T14:01:07.344Z,3.60
2017-11-19T14:03:42.128Z,3.70
2017-11-19T14:06:15.962Z,3.70
2017-11-19T14:08:49.775Z,3.40
2017-11-19T14:11:24.649Z,3.50
2017-11-19T14:13:58.670Z,3.30
2017-11-19T14:16:32.705Z,3.40
2017-11-19T14:19:06.602Z,3.40
2017-11-19T14:21:40.355Z,3.30
2017-11-19T14:24:14.257Z,3.20
2017-11-19T14:26:48.857Z,2.90
2017-11-19T14:29:22.810Z,2.80
2017-11-19T14:31:56.527Z,3.00
2017-11-19T14:34:31.506Z,3.00
2017-11-19T14:37:05.468Z,3.00
2017-11-19T14:39:39.253Z,3.00
2017-11-19T14:42:13.969Z,3.00
2017-11-19T14:44:47.939Z,3.00
2017-11-19T14:47:21.815Z,2.90
2017-11-19T14:49:55.807Z,2.90
2017-11-19T14:52:29.733Z,2.90
2017-11-19T14:55:03.762Z,2.90
2017-11-19T14:57:37.550Z,2.90
2017-11-19T15:00:11.539Z,2.80
2017-11-19T15:02:45.480Z,2.60
2017-11-19T15:05:19.422Z,2.60
2017-11-19T15:07:53.215Z,2.50
2017-11-19T15:10:27.107Z,2.50
2017-11-19T15:13:00.918Z,2.40
2017-11-19T15:15:35.662Z,2.50
2017-11-19T15:18:09.556Z,2.40
2017-11-19T15:20:43.376Z,2.30
2017-11-19T15:23:17.245Z,2.40
2017-11-19T15:25:51.196Z,2.40
2017-11-19T15:28:25.259Z,2.30
2017-11-19T15:30:59.130Z,2.40
2017-11-19T15:33:32.977Z,2.30
2017-11-19T15:36:06.970Z,2.20
2017-11-19T15:38:40.985Z,2.20
2017-11-19T15:41:15.215Z,2.10
2017-11-19T15:43:48.951Z,2.10
2017-11-19T15:46:22.940Z,2.10
2017-11-19T15:48:56.922Z,2.10
2017-11-19T15:51:30.852Z,2.00
2017-11-19T15:54:04.615Z,1.90
2017-11-19T15:56:38.364Z,1.90
2017-11-19T15:59:12.300Z,1.90
2017-11-19T16:01:46.423Z,1.80
2017-11-19T16:04:20.293Z,1.70
2017-11-19T16:06:55.043Z,1.70
2017-11-19T16:09:30.100Z,1.70
2017-11-19T16:12:04.878Z,1.70
2017-11-19T16:14:38.472Z,1.60
2017-11-19T16:17:13.185Z,1.60
2017-11-19T16:19:47.081Z,1.60
2017-11-19T16:22:21.336Z,1.70
2017-11-19T16:24:55.888Z,1.70
2017-11-19T16:27:30.040Z,1.70
2017-11-19T16:30:03.999Z,1.70
2017-11-19T16:32:37.763Z,1.70
2017-11-19T16:35:12.253Z,1.70
2017-11-19T16:37:46.245Z,1.70
2017-11-19T16:40:20.246Z,1.70
2017-11-19T16:42:54.149Z,1.80
2017-11-19T16:45:29.791Z,1.80
2017-11-19T16:48:04.707Z,1.80
2017-11-19T16:50:38.860Z,1.80
2017-11-19T16:53:12.701Z,1.80
2017-11-19T16:55:46.595Z,1.80
2017-11-19T16:58:20.415Z,1.90
2017-11-19T17:00:55.065Z,2.00
2017-11-19T17:03:29.038Z,1.90
2017-11-19T17:06:03.717Z,1.80
2017-11-19T17:08:38.380Z,1.80
2017-11-19T17:11:12.289Z,1.80
2017-11-19T17:13:46.063Z,1.80
2017-11-19T17:16:19.969Z,1.80
2017-11-19T17:18:53.990Z,1.80
2017-11-19T17:21:28.745Z,1.90
2017-11-19T17:24:02.664Z,1.90
2017-11-19T17:26:36.722Z,1.90
2017-11-19T17:29:10.598Z,2.00
2017-11-19T17:31:45.410Z,2.00
2017-11-19T17:34:21.038Z,2.10
2017-11-19T17:36:54.822Z,2.00
2017-11-19T17:39:30.241Z,2.00
2017-11-19T17:42:04.203Z,2.00
2017-11-19T17:44:38.311Z,2.00
2017-11-19T17:47:12.364Z,2.00
2017-11-19T17:49:46.249Z,2.00
2017-11-19T17:52:20.105Z,2.00
2017-11-19T17:54:54.037Z,2.00
2017-11-19T17:57:27.834Z,2.00
2017-11-19T18:00:01.871Z,2.10
2017-11-19T18:02:35.980Z,2.10
2017-11-19T18:05:09.887Z,2.10
2017-11-19T18:07:43.608Z,2.10
2017-11-19T18:10:17.422Z,2.20
2017-11-19T18:12:51.259Z,2.20
2017-11-19T18:15:25.446Z,2.20
2017-11-19T18:17:59.425Z,2.20
2017-11-19T18:20:33.342Z,2.20
2017-11-19T18:23:07.132Z,2.20
2017-11-19T18:25:41.054Z,2.20
2017-11-19T18:28:16.021Z,2.20
2017-11-19T18:30:50.138Z,2.20
2017-11-19T18:33:24.090Z,2.20
2017-11-19T18:35:57.787Z,2.20
2017-11-19T18:38:31.662Z,2.10
2017-11-19T18:41:05.746Z,2.10
2017-11-19T18:43:40.839Z,2.20
2017-11-19T18:46:14.908Z,2.10
2017-11-19T18:48:49.401Z,2.20
2017-11-19T18:51:24.333Z,2.20
2017-11-19T18:53:58.254Z,2.20
2017-11-19T18:56:32.159Z,2.20
2017-11-19T18:59:06.214Z,2.20
2017-11-19T19:01:39.823Z,2.20
2017-11-19T19:04:13.453Z,2.30
2017-11-19T19:06:47.178Z,2.30
2017-11-19T19:09:20.912Z,2.30
2017-11-19T19:11:55.465Z,2.30
2017-11-19T19:14:29.163Z,2.30
2017-11-19T19:17:03.227Z,2.40
2017-11-19T19:19:36.929Z,2.40
2017-11-19T19:22:10.727Z,2.40
2017-11-19T19:24:44.763Z,2.30
2017-11-19T19:27:18.434Z,2.40
2017-11-19T19:29:51.976Z,2.50
2017-11-19T19:32:25.652Z,2.40
2017-11-19T19:34:59.350Z,2.30
2017-11-19T19:37:33.208Z,2.30
2017-11-19T19:40:07.212Z,2.30
2017-11-19T19:42:41.392Z,2.40
2017-11-19T19:45:15.279Z,2.30
2017-11-19T19:47:49.091Z,2.20
2017-11-19T19:50:22.942Z,2.20
2017-11-19T19:52:56.778Z,2.10
2017-11-19T19:55:30.503Z,2.10
2017-11-19T19:58:04.524Z,2.10
2017-11-19T20:00:38.590Z,2.00
2017-11-19T20:03:12.724Z,1.90
2017-11-19T20:05:46.801Z,1.90
2017-11-19T20:08:21.496Z,2.00
2017-11-19T20:10:56.303Z,2.20
2017-11-19T20:13:30.251Z,2.20
2017-11-19T20:16:04.136Z,2.20
2017-11-19T20:18:37.919Z,2.20
2017-11-19T20:21:11.766Z,2.20
2017-11-19T20:23:45.945Z,2.20
2017-11-19T20:26:19.565Z,2.20
2017-11-19T20:28:53.446Z,2.10
2017-11-19T20:31:28.186Z,2.00
2017-11-19T20:34:02.998Z,2.00
2017-11-19T20:36:37.945Z,2.00
2017-11-19T20:39:11.877Z,2.00
2017-11-19T20:41:45.554Z,2.00
2017-11-19T20:44:19.646Z,2.10
2017-11-19T20:46:53.650Z,2.10
2017-11-19T20:49:28.464Z,2.10
2017-11-19T20:52:02.549Z,2.10
2017-11-19T20:54:36.568Z,2.10
2017-11-19T20:57:10.271Z,2.00
2017-11-19T20:59:44.943Z,2.00
2017-11-19T21:02:20.034Z,2.00
2017-11-19T21:04:53.855Z,2.00
2017-11-19T21:07:27.848Z,2.00
2017-11-19T21:10:02.197Z,2.00
2017-11-19T21:12:36.216Z,2.00
2017-11-19T21:15:10.276Z,2.10
2017-11-19T21:17:45.340Z,2.00
2017-11-19T21:20:19.259Z,2.00
2017-11-19T21:22:53.172Z,2.00
2017-11-19T21:25:27.094Z,2.00
2017-11-19T21:28:01.062Z,2.00
2017-11-19T21:30:35.138Z,2.00
2017-11-19T21:33:09.124Z,2.00
2017-11-19T21:35:42.983Z,2.00
2017-11-19T21:38:17.707Z,2.00
2017-11-19T21:40:51.681Z,2.00
2017-11-19T21:43:25.841Z,2.00
2017-11-19T21:45:59.854Z,2.00
2017-11-19T21:48:33.746Z,2.00
2017-11-19T21:51:07.848Z,2.10
2017-11-19T21:53:42.466Z,2.10
2017-11-19T21:56:16.158Z,2.10
2017-11-19T21:58:51.064Z,2.10
2017-11-19T22:01:25.003Z,2.10
2017-11-19T22:03:58.809Z,2.20
2017-11-19T22:06:32.695Z,2.20
2017-11-19T22:09:06.706Z,2.10
2017-11-19T22:11:40.777Z,2.20
2017-11-19T22:14:14.736Z,2.20
2017-11-19T22:16:48.855Z,2.20
2017-11-19T22:19:22.743Z,2.20
2017-11-19T22:21:56.724Z,2.20
2017-11-19T22:24:31.420Z,2.20
2017-11-19T22:27:05.373Z,2.20
2017-11-19T22:29:39.361Z,2.30
2017-11-19T22:32:13.101Z,2.30
2017-11-19T22:34:48.900Z,2.30
2017-11-19T22:37:23.341Z,2.30
2017-11-19T22:39:58.089Z,2.30
2017-11-19T22:42:32.031Z,2.30
2017-11-19T22:45:07.108Z,2.30
2017-11-19T22:47:40.978Z,2.30
2017-11-19T22:50:14.929Z,2.40
2017-11-19T22:52:50.618Z,2.30
2017-11-19T22:55:24.632Z,2.30
2017-11-19T22:57:58.585Z,2.40
2017-11-19T23:00:32.561Z,2.40
2017-11-19T23:03:06.397Z,2.40
2017-11-19T23:05:41.127Z,2.40
2017-11-19T23:08:15.127Z,2.40
2017-11-19T23:10:50.162Z,2.40
2017-11-19T23:13:24.476Z,2.40
2017-11-19T23:15:59.244Z,2.40
2017-11-19T23:18:33.473Z,2.50
2017-11-19T23:21:07.568Z,2.50
2017-11-19T23:23:41.604Z,2.50
2017-11-19T23:26:15.744Z,2.40
2017-11-19T23:28:50.164Z,2.40
2017-11-19T23:31:24.857Z,2.40
2017-11-19T23:33:59.035Z,2.50
2017-11-19T23:36:34.388Z,2.40
2017-11-19T23:39:08.425Z,2.40
2017-11-19T23:41:42.762Z,2.40
2017-11-19T23:44:16.587Z,2.40
2017-11-19T23:46:50.362Z,2.30
2017-11-19T23:49:24.581Z,2.30
2017-11-19T23:51:59.879Z,2.30
2017-11-19T23:54:33.938Z,2.30
2017-11-19T23:57:09.320Z,2.20
2017-11-19T23:59:43.934Z,2.20
